Time,TemperatureF,DewpointF,PressureIn,WindDirection,WindDirectionDegrees,WindSpeedMPH,WindSpeedGustMPH,Humidity,HourlyPrecipIn,Conditions,Clouds,dailyrainin,SolarRadiationWatts/m^2,SoftwareType,DateUTC
2013-04-17 00:08:00,53.2,30.0,30.16,North,360,0.0,0.0,42,0.00,,,0.00,0,weatherlink.com 1.10,2013-04-17 07:08:00,
2013-04-17 00:23:00,52.9,31.0,30.16,North,360,0.0,0.0,43,0.00,,,0.00,0,weatherlink.com 1.10,2013-04-17 07:23:00,
2013-04-17 00:38:00,52.7,31.0,30.16,North,360,0.0,0.0,43,0.00,,,0.00,0,weatherlink.com 1.10,2013-04-17 07:38:00,
2013-04-17 00:53:00,52.8,31.0,30.16,North,-999,0.0,0.0,44,0.00,,,0.00,0,weatherlink.com 1.10,2013-04-17 07:53:00,
2013-04-17 01:08:00,53.0,31.0,30.17,North,360,0.0,0.0,44,0.00,,,0.00,0,weatherlink.com 1.10,2013-04-17 08:08:00,
2013-04-17 01:23:00,53.1,31.0,30.17,North,-999,0.0,0.0,43,0.00,,,0.00,0,weatherlink.com 1.10,2013-04-17 08:23:00,
2013-04-17 01:38:00,53.3,30.0,30.17,North,-999,0.0,0.0,41,0.00,,,0.00,0,weatherlink.com 1.10,2013-04-17 08:38:00,
2013-04-17 01:53:00,53.2,30.0,30.17,North,-999,0.0,0.0,42,0.00,,,0.00,0,weatherlink.com 1.10,2013-04-17 08:53:00,
2013-04-17 02:08:00,53.3,31.0,30.17,North,-999,0.0,0.0,42,0.00,,,0.00,0,weatherlink.com 1.10,2013-04-17 09:08:00,
2013-04-17 02:23:00,53.4,31.0,30.17,North,-999,0.0,0.0,42,0.00,,,0.00,0,weatherlink.com 1.10,2013-04-17 09:23:00,
2013-04-17 02:38:00,53.3,31.0,30.17,North,-999,0.0,0.0,43,0.00,,,0.00,0,weatherlink.com 1.10,2013-04-17 09:38:00,
2013-04-17 02:53:00,53.1,32.0,30.17,North,360,0.0,0.0,44,0.00,,,0.00,0,weatherlink.com 1.10,2013-04-17 09:53:00,
2013-04-17 03:08:00,52.8,32.0,30.17,North,360,0.0,0.0,45,0.00,,,0.00,0,weatherlink.com 1.10,2013-04-17 10:08:00,
2013-04-17 03:23:00,52.8,32.0,30.16,North,-999,0.0,0.0,45,0.00,,,0.00,0,weatherlink.com 1.10,2013-04-17 10:23:00,
2013-04-17 03:38:00,52.7,32.0,30.17,North,360,0.0,0.0,45,0.00,,,0.00,0,weatherlink.com 1.10,2013-04-17 10:38:00,
2013-04-17 03:53:00,52.6,30.0,30.17,North,-999,0.0,0.0,43,0.00,,,0.00,0,weatherlink.com 1.10,2013-04-17 10:53:00,
2013-04-17 04:23:00,52.7,30.0,30.17,North,-999,0.0,0.0,42,0.00,,,0.00,0,weatherlink.com 1.10,2013-04-17 11:23:00,
2013-04-17 04:38:00,52.7,29.0,30.17,North,-999,0.0,0.0,41,0.00,,,0.00,0,weatherlink.com 1.10,2013-04-17 11:38:00,
2013-04-17 04:53:00,52.4,29.0,30.17,North,360,0.0,0.0,41,0.00,,,0.00,0,weatherlink.com 1.10,2013-04-17 11:53:00,
2013-04-17 05:08:00,52.2,30.0,30.17,North,360,0.0,0.0,42,0.00,,,0.00,0,weatherlink.com 1.10,2013-04-17 12:08:00,
2013-04-17 05:23:00,51.9,30.0,30.17,North,360,0.0,0.0,43,0.00,,,0.00,0,weatherlink.com 1.10,2013-04-17 12:23:00,
2013-04-17 05:38:00,51.7,30.0,30.18,North,-999,0.0,0.0,44,0.00,,,0.00,0,weatherlink.com 1.10,2013-04-17 12:38:00,
2013-04-17 05:53:00,51.4,31.0,30.18,North,-999,0.0,0.0,46,0.00,,,0.00,0,weatherlink.com 1.10,2013-04-17 12:53:00,
2013-04-17 06:08:00,51.2,31.0,30.18,North,-999,0.0,0.0,47,0.00,,,0.00,0,weatherlink.com 1.10,2013-04-17 13:08:00,
2013-04-17 06:23:00,51.4,31.0,30.19,North,-999,0.0,0.0,45,0.00,,,0.00,0,weatherlink.com 1.10,2013-04-17 13:23:00,
2013-04-17 06:38:00,51.1,31.0,30.19,North,-999,0.0,0.0,46,0.00,,,0.00,5,weatherlink.com 1.10,2013-04-17 13:38:00,
2013-04-17 06:53:00,51.4,31.0,30.20,North,-999,0.0,0.0,46,0.00,,,0.00,19,weatherlink.com 1.10,2013-04-17 13:53:00,
2013-04-17 07:08:00,51.6,32.0,30.20,North,-999,0.0,0.0,47,0.00,,,0.00,28,weatherlink.com 1.10,2013-04-17 14:08:00,
2013-04-17 07:23:00,52.0,31.0,30.21,North,-999,0.0,0.0,45,0.00,,,0.00,33,weatherlink.com 1.10,2013-04-17 14:23:00,
2013-04-17 07:38:00,52.2,31.0,30.22,North,-999,0.0,0.0,44,0.00,,,0.00,39,weatherlink.com 1.10,2013-04-17 14:38:00,
2013-04-17 07:53:00,52.6,30.0,30.23,North,360,0.0,0.0,43,0.00,,,0.00,40,weatherlink.com 1.10,2013-04-17 14:53:00,
2013-04-17 08:08:00,53.3,31.0,30.24,North,-999,0.0,0.0,42,0.00,,,0.00,42,weatherlink.com 1.10,2013-04-17 15:08:00,
2013-04-17 08:23:00,53.9,30.0,30.24,North,-999,0.0,0.0,40,0.00,,,0.00,44,weatherlink.com 1.10,2013-04-17 15:23:00,
2013-04-17 08:38:00,54.4,30.0,30.24,North,360,0.0,0.0,40,0.00,,,0.00,47,weatherlink.com 1.10,2013-04-17 15:38:00,
2013-04-17 08:54:00,54.9,30.0,30.25,North,360,0.0,0.0,38,0.00,,,0.00,185,weatherlink.com 1.10,2013-04-17 15:54:00,
2013-04-17 09:09:00,55.3,30.0,30.25,North,360,0.0,0.0,38,0.00,,,0.00,176,weatherlink.com 1.10,2013-04-17 16:09:00,
2013-04-17 09:24:00,56.2,30.0,30.25,North,-999,0.0,0.0,37,0.00,,,0.00,552,weatherlink.com 1.10,2013-04-17 16:24:00,
2013-04-17 09:39:00,56.3,29.0,30.25,North,-999,0.0,0.0,36,0.00,,,0.00,610,weatherlink.com 1.10,2013-04-17 16:39:00,
2013-04-17 09:54:00,56.9,31.0,30.25,North,-999,0.0,0.0,37,0.00,,,0.00,661,weatherlink.com 1.10,2013-04-17 16:54:00,
2013-04-17 10:09:00,57.3,31.0,30.25,North,-999,0.0,0.0,37,0.00,,,0.00,694,weatherlink.com 1.10,2013-04-17 17:09:00,
2013-04-17 10:24:00,58.2,31.0,30.25,North,360,0.0,0.0,36,0.00,,,0.00,733,weatherlink.com 1.10,2013-04-17 17:24:00,
2013-04-17 10:39:00,58.4,31.0,30.25,North,360,0.0,0.0,36,0.00,,,0.00,766,weatherlink.com 1.10,2013-04-17 17:39:00,
2013-04-17 10:54:00,58.9,31.0,30.26,North,-999,0.0,0.0,35,0.00,,,0.00,800,weatherlink.com 1.10,2013-04-17 17:54:00,
2013-04-17 11:09:00,60.0,31.0,30.27,North,-999,0.0,0.0,33,0.00,,,0.00,830,weatherlink.com 1.10,2013-04-17 18:09:00,
2013-04-17 11:24:00,61.2,29.0,30.27,North,360,0.0,0.0,30,0.00,,,0.00,856,weatherlink.com 1.10,2013-04-17 18:24:00,
2013-04-17 11:39:00,62.1,31.0,30.26,North,360,0.0,0.0,31,0.00,,,0.00,881,weatherlink.com 1.10,2013-04-17 18:39:00,
2013-04-17 11:54:00,62.3,29.0,30.26,North,360,0.0,0.0,28,0.00,,,0.00,896,weatherlink.com 1.10,2013-04-17 18:54:00,
2013-04-17 12:09:00,62.3,28.0,30.26,North,360,0.0,0.0,27,0.00,,,0.00,907,weatherlink.com 1.10,2013-04-17 19:09:00,
2013-04-17 12:24:00,63.2,28.0,30.26,North,360,0.0,0.0,26,0.00,,,0.00,919,weatherlink.com 1.10,2013-04-17 19:24:00,
2013-04-17 12:39:00,64.1,37.0,30.25,North,-999,0.0,0.0,37,0.00,,,0.00,930,weatherlink.com 1.10,2013-04-17 19:39:00,
2013-04-17 12:54:00,63.5,40.0,30.26,North,-999,0.0,0.0,42,0.00,,,0.00,933,weatherlink.com 1.10,2013-04-17 19:54:00,
2013-04-17 13:09:00,62.7,41.0,30.25,North,-999,0.0,0.0,46,0.00,,,0.00,932,weatherlink.com 1.10,2013-04-17 20:09:00,
2013-04-17 13:24:00,61.9,40.0,30.25,North,360,0.0,0.0,45,0.00,,,0.00,926,weatherlink.com 1.10,2013-04-17 20:24:00,
2013-04-17 13:39:00,62.2,42.0,30.25,North,360,0.0,0.0,47,0.00,,,0.00,912,weatherlink.com 1.10,2013-04-17 20:39:00,
2013-04-17 13:54:00,61.5,41.0,30.24,North,360,0.0,0.0,47,0.00,,,0.00,911,weatherlink.com 1.10,2013-04-17 20:54:00,
2013-04-17 14:09:00,61.3,41.0,30.24,North,-999,0.0,0.0,47,0.00,,,0.00,896,weatherlink.com 1.10,2013-04-17 21:09:00,
2013-04-17 14:25:00,61.3,40.0,30.24,North,-999,0.0,0.0,45,0.00,,,0.00,833,weatherlink.com 1.10,2013-04-17 21:25:00,
2013-04-17 14:40:00,60.4,39.0,30.23,North,-999,0.0,0.0,46,0.00,,,0.00,62,weatherlink.com 1.10,2013-04-17 21:40:00,
2013-04-17 14:55:00,59.3,39.0,30.23,North,-999,0.0,0.0,47,0.00,,,0.00,63,weatherlink.com 1.10,2013-04-17 21:55:00,
2013-04-17 15:10:00,58.6,39.0,30.23,North,360,0.0,0.0,49,0.00,,,0.00,37,weatherlink.com 1.10,2013-04-17 22:10:00,
2013-04-17 15:25:00,57.7,40.0,30.21,North,360,0.0,0.0,52,0.00,,,0.00,35,weatherlink.com 1.10,2013-04-17 22:25:00,
2013-04-17 15:40:00,57.6,41.0,30.21,North,360,0.0,0.0,54,0.00,,,0.00,105,weatherlink.com 1.10,2013-04-17 22:40:00,
2013-04-17 15:55:00,57.5,42.0,30.20,North,-999,0.0,0.0,56,0.00,,,0.00,76,weatherlink.com 1.10,2013-04-17 22:55:00,
2013-04-17 16:10:00,57.1,42.0,30.20,North,360,0.0,0.0,57,0.00,,,0.00,468,weatherlink.com 1.10,2013-04-17 23:10:00,
2013-04-17 16:25:00,57.5,40.0,30.20,North,-999,0.0,0.0,53,0.00,,,0.00,40,weatherlink.com 1.10,2013-04-17 23:25:00,
2013-04-17 16:40:00,57.8,40.0,30.19,North,-999,0.0,0.0,52,0.00,,,0.00,88,weatherlink.com 1.10,2013-04-17 23:40:00,
2013-04-17 16:55:00,58.3,41.0,30.19,North,-999,0.0,0.0,52,0.00,,,0.00,258,weatherlink.com 1.10,2013-04-17 23:55:00,
2013-04-17 17:10:00,58.5,40.0,30.19,North,360,0.0,0.0,51,0.00,,,0.00,127,weatherlink.com 1.10,2013-04-18 00:10:00,
2013-04-17 17:25:00,57.8,42.0,30.19,North,360,0.0,0.0,57,0.00,,,0.00,70,weatherlink.com 1.10,2013-04-18 00:25:00,
2013-04-17 17:40:00,56.7,42.0,30.20,North,-999,0.0,0.0,58,0.00,,,0.00,158,weatherlink.com 1.10,2013-04-18 00:40:00,
2013-04-17 17:55:00,56.2,42.0,30.19,North,360,0.0,0.0,59,0.00,,,0.00,39,weatherlink.com 1.10,2013-04-18 00:55:00,
2013-04-17 18:10:00,55.7,42.0,30.19,North,-999,0.0,0.0,61,0.00,,,0.00,62,weatherlink.com 1.10,2013-04-18 01:10:00,
2013-04-17 18:25:00,55.5,41.0,30.19,North,-999,0.0,0.0,59,0.00,,,0.00,42,weatherlink.com 1.10,2013-04-18 01:25:00,
2013-04-17 18:55:00,54.9,41.0,30.19,North,-999,0.0,0.0,61,0.00,,,0.00,16,weatherlink.com 1.10,2013-04-18 01:55:00,
2013-04-17 19:10:00,54.1,42.0,30.19,North,-999,0.0,0.0,64,0.00,,,0.00,12,weatherlink.com 1.10,2013-04-18 02:10:00,
2013-04-17 19:25:00,53.5,42.0,30.19,North,-999,0.0,0.0,66,0.00,,,0.00,9,weatherlink.com 1.10,2013-04-18 02:25:00,
2013-04-17 19:40:00,52.7,43.0,30.19,North,-999,0.0,0.0,69,0.00,,,0.00,5,weatherlink.com 1.10,2013-04-18 02:40:00,
2013-04-17 19:55:00,51.6,42.0,30.19,North,360,0.0,0.0,71,0.00,,,0.00,0,weatherlink.com 1.10,2013-04-18 02:55:00,
2013-04-17 20:10:00,51.0,43.0,30.20,North,360,0.0,0.0,73,0.00,,,0.00,0,weatherlink.com 1.10,2013-04-18 03:10:00,
2013-04-17 20:25:00,50.6,43.0,30.20,North,360,0.0,0.0,74,0.00,,,0.00,0,weatherlink.com 1.10,2013-04-18 03:25:00,
2013-04-17 20:40:00,50.2,42.0,30.20,North,360,0.0,0.0,74,0.00,,,0.00,0,weatherlink.com 1.10,2013-04-18 03:40:00,
2013-04-17 20:55:00,50.4,42.0,30.20,North,360,0.0,0.0,74,0.00,,,0.00,0,weatherlink.com 1.10,2013-04-18 03:55:00,
2013-04-17 21:10:00,50.0,43.0,30.21,North,-999,0.0,0.0,76,0.00,,,0.00,0,weatherlink.com 1.10,2013-04-18 04:10:00,
2013-04-17 21:25:00,49.3,43.0,30.21,North,360,0.0,0.0,78,0.00,,,0.00,0,weatherlink.com 1.10,2013-04-18 04:25:00,
2013-04-17 21:40:00,49.4,43.0,30.22,North,360,0.0,0.0,79,0.00,,,0.00,0,weatherlink.com 1.10,2013-04-18 04:40:00,
2013-04-17 21:55:00,48.8,44.0,30.22,North,-999,0.0,0.0,82,0.00,,,0.00,0,weatherlink.com 1.10,2013-04-18 04:55:00,
2013-04-17 22:10:00,48.1,43.0,30.22,North,360,0.0,0.0,83,0.00,,,0.00,0,weatherlink.com 1.10,2013-04-18 05:10:00,
2013-04-17 22:25:00,47.7,42.0,30.22,North,-999,0.0,0.0,81,0.00,,,0.00,0,weatherlink.com 1.10,2013-04-18 05:25:00,
2013-04-17 22:40:00,47.9,42.0,30.22,North,-999,0.0,0.0,80,0.00,,,0.00,0,weatherlink.com 1.10,2013-04-18 05:40:00,
2013-04-17 22:55:00,48.1,41.0,30.22,North,-999,0.0,0.0,75,0.00,,,0.00,0,weatherlink.com 1.10,2013-04-18 05:55:00,
2013-04-17 23:10:00,49.3,38.0,30.21,North,-999,0.0,0.0,66,0.00,,,0.00,0,weatherlink.com 1.10,2013-04-18 06:10:00,
2013-04-17 23:25:00,50.1,37.0,30.21,North,-999,0.0,0.0,62,0.00,,,0.00,0,weatherlink.com 1.10,2013-04-18 06:25:00,
2013-04-17 23:40:00,51.6,36.0,30.21,North,360,0.0,0.0,56,0.00,,,0.00,0,weatherlink.com 1.10,2013-04-18 06:40:00,
2013-04-17 23:55:00,52.5,37.0,30.21,North,360,0.0,0.0,57,0.00,,,0.00,0,weatherlink.com 1.10,2013-04-18 06:55:00,